sensor_id;sensor_type;location;lat;lon;timestamp;temperature;humidity
57753;DHT22;43583;53.132;6.574;2022-12-07T00:03:31;3.20;99.90
57753;DHT22;43583;53.132;6.574;2022-12-07T00:06:01;3.30;99.90
57753;DHT22;43583;53.132;6.574;2022-12-07T00:08:26;3.20;99.90
57753;DHT22;43583;53.132;6.574;2022-12-07T00:10:52;3.30;99.90
57753;DHT22;43583;53.132;6.574;2022-12-07T00:13:18;3.30;99.90
57753;DHT22;43583;53.132;6.574;2022-12-07T00:15:44;3.30;99.90
57753;DHT22;43583;53.132;6.574;2022-12-07T00:18:09;3.30;99.90
57753;DHT22;43583;53.132;6.574;2022-12-07T00:20:35;3.30;99.90
57753;DHT22;43583;53.132;6.574;2022-12-07T00:23:00;3.30;99.90
57753;DHT22;43583;53.132;6.574;2022-12-07T00:25:26;3.30;99.90
57753;DHT22;43583;53.132;6.574;2022-12-07T00:27:53;3.20;99.90
57753;DHT22;43583;53.132;6.574;2022-12-07T00:30:21;3.20;99.90
57753;DHT22;43583;53.132;6.574;2022-12-07T00:32:46;3.20;99.90
57753;DHT22;43583;53.132;6.574;2022-12-07T00:35:12;3.10;99.90
57753;DHT22;43583;53.132;6.574;2022-12-07T00:37:38;3.10;99.90
57753;DHT22;43583;53.132;6.574;2022-12-07T00:40:04;3.00;99.90
57753;DHT22;43583;53.132;6.574;2022-12-07T00:42:29;3.00;99.90
57753;DHT22;43583;53.132;6.574;2022-12-07T00:44:55;3.00;99.90
57753;DHT22;43583;53.132;6.574;2022-12-07T00:47:20;3.00;99.90
57753;DHT22;43583;53.132;6.574;2022-12-07T00:49:46;3.00;99.90
57753;DHT22;43583;53.132;6.574;2022-12-07T00:52:11;3.00;99.90
57753;DHT22;43583;53.132;6.574;2022-12-07T00:54:37;3.00;99.90
57753;DHT22;43583;53.132;6.574;2022-12-07T00:57:03;3.00;99.90
57753;DHT22;43583;53.132;6.574;2022-12-07T00:59:28;3.00;99.90
57753;DHT22;43583;53.132;6.574;2022-12-07T01:01:54;3.10;99.90
57753;DHT22;43583;53.132;6.574;2022-12-07T01:04:19;3.10;99.90
57753;DHT22;43583;53.132;6.574;2022-12-07T01:06:45;3.30;99.90
57753;DHT22;43583;53.132;6.574;2022-12-07T01:09:10;3.30;99.90
57753;DHT22;43583;53.132;6.574;2022-12-07T01:11:36;3.40;99.90
57753;DHT22;43583;53.132;6.574;2022-12-07T01:14:01;3.40;99.90
57753;DHT22;43583;53.132;6.574;2022-12-07T01:16:29;3.50;99.90
57753;DHT22;43583;53.132;6.574;2022-12-07T01:18:56;3.60;99.90
57753;DHT22;43583;53.132;6.574;2022-12-07T01:21:27;3.50;99.90
57753;DHT22;43583;53.132;6.574;2022-12-07T01:23:53;3.60;99.90
57753;DHT22;43583;53.132;6.574;2022-12-07T01:26:21;3.60;99.90
57753;DHT22;43583;53.132;6.574;2022-12-07T01:28:47;3.60;99.90
57753;DHT22;43583;53.132;6.574;2022-12-07T01:31:16;3.60;99.90
57753;DHT22;43583;53.132;6.574;2022-12-07T01:33:44;3.60;99.90
57753;DHT22;43583;53.132;6.574;2022-12-07T01:36:18;3.60;99.90
57753;DHT22;43583;53.132;6.574;2022-12-07T01:38:45;3.60;99.90
57753;DHT22;43583;53.132;6.574;2022-12-07T01:41:12;3.60;99.90
57753;DHT22;43583;53.132;6.574;2022-12-07T01:46:55;3.70;99.90
57753;DHT22;43583;53.132;6.574;2022-12-07T01:49:23;3.80;99.90
57753;DHT22;43583;53.132;6.574;2022-12-07T01:51:53;3.80;99.90
57753;DHT22;43583;53.132;6.574;2022-12-07T01:54:20;3.90;99.90
57753;DHT22;43583;53.132;6.574;2022-12-07T01:56:51;3.90;99.90
57753;DHT22;43583;53.132;6.574;2022-12-07T01:59:18;3.90;99.90
57753;DHT22;43583;53.132;6.574;2022-12-07T02:01:45;3.80;99.90
57753;DHT22;43583;53.132;6.574;2022-12-07T02:04:11;3.80;99.90
57753;DHT22;43583;53.132;6.574;2022-12-07T02:06:37;3.70;99.90
57753;DHT22;43583;53.132;6.574;2022-12-07T02:09:04;3.60;99.90
57753;DHT22;43583;53.132;6.574;2022-12-07T02:11:30;3.60;99.90
57753;DHT22;43583;53.132;6.574;2022-12-07T02:13:56;3.70;99.90
57753;DHT22;43583;53.132;6.574;2022-12-07T02:17:03;3.60;99.90
57753;DHT22;43583;53.132;6.574;2022-12-07T02:22:54;3.60;99.90
57753;DHT22;43583;53.132;6.574;2022-12-07T02:28:24;3.50;99.90
57753;DHT22;43583;53.132;6.574;2022-12-07T02:30:52;3.50;99.90
57753;DHT22;43583;53.132;6.574;2022-12-07T02:33:29;3.50;99.90
57753;DHT22;43583;53.132;6.574;2022-12-07T02:38:55;3.50;99.90
57753;DHT22;43583;53.132;6.574;2022-12-07T02:41:36;3.50;99.90
57753;DHT22;43583;53.132;6.574;2022-12-07T02:44:07;3.50;99.90
57753;DHT22;43583;53.132;6.574;2022-12-07T02:46:38;3.60;99.90
57753;DHT22;43583;53.132;6.574;2022-12-07T02:49:05;3.70;99.90
57753;DHT22;43583;53.132;6.574;2022-12-07T02:51:32;3.80;99.90
57753;DHT22;43583;53.132;6.574;2022-12-07T02:53:59;3.90;99.90
57753;DHT22;43583;53.132;6.574;2022-12-07T02:56:45;4.10;99.90
57753;DHT22;43583;53.132;6.574;2022-12-07T03:04:56;4.10;99.90
57753;DHT22;43583;53.132;6.574;2022-12-07T03:07:29;4.10;99.90
57753;DHT22;43583;53.132;6.574;2022-12-07T03:11:04;4.00;99.90
57753;DHT22;43583;53.132;6.574;2022-12-07T03:13:28;4.10;99.90
57753;DHT22;43583;53.132;6.574;2022-12-07T03:18:35;4.20;99.90
57753;DHT22;43583;53.132;6.574;2022-12-07T03:21:06;4.20;99.90
57753;DHT22;43583;53.132;6.574;2022-12-07T03:23:35;4.20;99.90
57753;DHT22;43583;53.132;6.574;2022-12-07T03:26:04;4.10;99.90
57753;DHT22;43583;53.132;6.574;2022-12-07T03:28:35;4.20;99.90
57753;DHT22;43583;53.132;6.574;2022-12-07T03:31:08;4.10;99.90
57753;DHT22;43583;53.132;6.574;2022-12-07T03:33:46;4.10;99.90
57753;DHT22;43583;53.132;6.574;2022-12-07T03:36:41;4.10;99.90
57753;DHT22;43583;53.132;6.574;2022-12-07T03:39:28;4.20;99.90
57753;DHT22;43583;53.132;6.574;2022-12-07T03:41:57;4.20;99.90
57753;DHT22;43583;53.132;6.574;2022-12-07T03:44:24;4.20;99.90
57753;DHT22;43583;53.132;6.574;2022-12-07T03:47:07;4.10;99.90
57753;DHT22;43583;53.132;6.574;2022-12-07T03:49:46;4.10;99.90
57753;DHT22;43583;53.132;6.574;2022-12-07T03:52:47;4.00;99.90
57753;DHT22;43583;53.132;6.574;2022-12-07T03:55:43;4.10;99.90
57753;DHT22;43583;53.132;6.574;2022-12-07T03:58:17;4.10;99.90
57753;DHT22;43583;53.132;6.574;2022-12-07T04:00:43;4.10;99.90
57753;DHT22;43583;53.132;6.574;2022-12-07T04:03:10;4.00;99.90
57753;DHT22;43583;53.132;6.574;2022-12-07T04:05:36;4.10;99.90
57753;DHT22;43583;53.132;6.574;2022-12-07T04:08:02;4.10;99.90
57753;DHT22;43583;53.132;6.574;2022-12-07T04:10:27;4.00;99.90
57753;DHT22;43583;53.132;6.574;2022-12-07T04:12:53;3.90;99.90
57753;DHT22;43583;53.132;6.574;2022-12-07T04:15:18;3.80;99.90
57753;DHT22;43583;53.132;6.574;2022-12-07T04:17:44;3.70;99.90
57753;DHT22;43583;53.132;6.574;2022-12-07T04:20:10;3.60;99.90
57753;DHT22;43583;53.132;6.574;2022-12-07T04:22:36;3.50;99.90
57753;DHT22;43583;53.132;6.574;2022-12-07T04:25:01;3.40;99.90
57753;DHT22;43583;53.132;6.574;2022-12-07T04:27:27;3.40;99.90
57753;DHT22;43583;53.132;6.574;2022-12-07T04:29:53;3.40;99.90
57753;DHT22;43583;53.132;6.574;2022-12-07T04:32:18;3.40;99.90
57753;DHT22;43583;53.132;6.574;2022-12-07T04:34:44;3.30;99.90
57753;DHT22;43583;53.132;6.574;2022-12-07T04:37:09;3.30;99.90
57753;DHT22;43583;53.132;6.574;2022-12-07T04:39:35;3.20;99.90
57753;DHT22;43583;53.132;6.574;2022-12-07T04:42:01;3.10;99.90
57753;DHT22;43583;53.132;6.574;2022-12-07T04:44:28;3.00;99.90
57753;DHT22;43583;53.132;6.574;2022-12-07T04:46:54;2.90;99.90
57753;DHT22;43583;53.132;6.574;2022-12-07T04:49:20;2.80;99.90
57753;DHT22;43583;53.132;6.574;2022-12-07T04:51:46;2.80;99.90
57753;DHT22;43583;53.132;6.574;2022-12-07T04:54:12;2.80;99.90
57753;DHT22;43583;53.132;6.574;2022-12-07T04:56:38;2.90;99.90
57753;DHT22;43583;53.132;6.574;2022-12-07T04:59:04;2.90;99.90
57753;DHT22;43583;53.132;6.574;2022-12-07T05:01:30;2.90;99.90
57753;DHT22;43583;53.132;6.574;2022-12-07T05:03:56;3.00;99.90
57753;DHT22;43583;53.132;6.574;2022-12-07T05:06:21;3.00;99.90
57753;DHT22;43583;53.132;6.574;2022-12-07T05:08:47;3.00;99.90
57753;DHT22;43583;53.132;6.574;2022-12-07T05:11:13;3.00;99.90
57753;DHT22;43583;53.132;6.574;2022-12-07T05:13:57;2.90;99.90
57753;DHT22;43583;53.132;6.574;2022-12-07T05:16:23;2.80;99.90
57753;DHT22;43583;53.132;6.574;2022-12-07T05:18:48;2.80;99.90
57753;DHT22;43583;53.132;6.574;2022-12-07T05:21:14;2.70;99.90
57753;DHT22;43583;53.132;6.574;2022-12-07T05:23:39;2.60;99.90
57753;DHT22;43583;53.132;6.574;2022-12-07T05:26:05;2.60;99.90
57753;DHT22;43583;53.132;6.574;2022-12-07T05:28:30;2.50;99.90
57753;DHT22;43583;53.132;6.574;2022-12-07T05:30:56;2.40;99.90
57753;DHT22;43583;53.132;6.574;2022-12-07T05:33:21;2.40;99.90
57753;DHT22;43583;53.132;6.574;2022-12-07T05:35:47;2.30;99.90
57753;DHT22;43583;53.132;6.574;2022-12-07T05:38:13;2.30;99.90
57753;DHT22;43583;53.132;6.574;2022-12-07T05:40:38;2.20;99.90
57753;DHT22;43583;53.132;6.574;2022-12-07T05:43:04;2.20;99.90
57753;DHT22;43583;53.132;6.574;2022-12-07T05:45:29;2.10;99.90
57753;DHT22;43583;53.132;6.574;2022-12-07T05:47:55;2.10;99.90
57753;DHT22;43583;53.132;6.574;2022-12-07T05:50:20;2.00;99.90
57753;DHT22;43583;53.132;6.574;2022-12-07T05:52:46;2.00;99.90
57753;DHT22;43583;53.132;6.574;2022-12-07T05:55:11;2.10;99.90
57753;DHT22;43583;53.132;6.574;2022-12-07T05:57:37;2.10;99.90
57753;DHT22;43583;53.132;6.574;2022-12-07T06:00:03;2.10;99.90
57753;DHT22;43583;53.132;6.574;2022-12-07T06:02:29;2.00;99.90
57753;DHT22;43583;53.132;6.574;2022-12-07T06:04:55;2.10;99.90
57753;DHT22;43583;53.132;6.574;2022-12-07T06:07:21;2.10;99.90
57753;DHT22;43583;53.132;6.574;2022-12-07T06:09:46;2.00;99.90
57753;DHT22;43583;53.132;6.574;2022-12-07T06:12:12;2.00;99.90
57753;DHT22;43583;53.132;6.574;2022-12-07T06:14:57;1.90;99.90
57753;DHT22;43583;53.132;6.574;2022-12-07T06:17:23;1.90;99.90
57753;DHT22;43583;53.132;6.574;2022-12-07T06:19:48;1.90;99.90
57753;DHT22;43583;53.132;6.574;2022-12-07T06:22:14;1.90;99.90
57753;DHT22;43583;53.132;6.574;2022-12-07T06:24:41;1.90;99.90
57753;DHT22;43583;53.132;6.574;2022-12-07T06:27:07;2.00;99.90
57753;DHT22;43583;53.132;6.574;2022-12-07T06:29:33;2.20;99.90
57753;DHT22;43583;53.132;6.574;2022-12-07T06:31:59;2.40;99.90
57753;DHT22;43583;53.132;6.574;2022-12-07T06:34:25;2.50;99.90
57753;DHT22;43583;53.132;6.574;2022-12-07T06:36:51;2.60;99.90
57753;DHT22;43583;53.132;6.574;2022-12-07T06:39:20;2.70;99.90
57753;DHT22;43583;53.132;6.574;2022-12-07T06:41:45;2.70;99.90
57753;DHT22;43583;53.132;6.574;2022-12-07T06:44:11;2.70;99.90
57753;DHT22;43583;53.132;6.574;2022-12-07T06:46:36;2.70;99.90
57753;DHT22;43583;53.132;6.574;2022-12-07T06:49:04;2.60;99.90
57753;DHT22;43583;53.132;6.574;2022-12-07T06:51:30;2.60;99.90
57753;DHT22;43583;53.132;6.574;2022-12-07T06:53:56;2.50;99.90
57753;DHT22;43583;53.132;6.574;2022-12-07T06:56:21;2.40;99.90
57753;DHT22;43583;53.132;6.574;2022-12-07T06:58:48;2.30;99.90
57753;DHT22;43583;53.132;6.574;2022-12-07T07:01:17;2.30;99.90
57753;DHT22;43583;53.132;6.574;2022-12-07T07:03:43;2.20;99.90
57753;DHT22;43583;53.132;6.574;2022-12-07T07:06:10;2.10;99.90
57753;DHT22;43583;53.132;6.574;2022-12-07T07:08:37;2.10;99.90
57753;DHT22;43583;53.132;6.574;2022-12-07T07:11:03;2.00;99.90
57753;DHT22;43583;53.132;6.574;2022-12-07T07:13:29;2.00;99.90
57753;DHT22;43583;53.132;6.574;2022-12-07T07:15:54;2.10;99.90
57753;DHT22;43583;53.132;6.574;2022-12-07T07:18:20;2.20;99.90
57753;DHT22;43583;53.132;6.574;2022-12-07T07:20:46;2.20;99.90
57753;DHT22;43583;53.132;6.574;2022-12-07T07:23:11;2.40;99.90
57753;DHT22;43583;53.132;6.574;2022-12-07T07:25:37;2.50;99.90
57753;DHT22;43583;53.132;6.574;2022-12-07T07:28:03;2.70;99.90
57753;DHT22;43583;53.132;6.574;2022-12-07T07:30:29;2.80;99.90
57753;DHT22;43583;53.132;6.574;2022-12-07T07:32:58;2.90;99.90
57753;DHT22;43583;53.132;6.574;2022-12-07T07:35:25;2.90;99.90
57753;DHT22;43583;53.132;6.574;2022-12-07T07:37:50;3.00;99.90
57753;DHT22;43583;53.132;6.574;2022-12-07T07:40:16;3.00;99.90
57753;DHT22;43583;53.132;6.574;2022-12-07T07:42:42;3.00;99.90
57753;DHT22;43583;53.132;6.574;2022-12-07T07:45:08;2.90;99.90
57753;DHT22;43583;53.132;6.574;2022-12-07T07:47:33;2.90;99.90
57753;DHT22;43583;53.132;6.574;2022-12-07T07:49:59;2.80;99.90
57753;DHT22;43583;53.132;6.574;2022-12-07T07:52:24;2.70;99.90
57753;DHT22;43583;53.132;6.574;2022-12-07T07:54:50;2.60;99.90
57753;DHT22;43583;53.132;6.574;2022-12-07T07:57:16;2.50;99.90
57753;DHT22;43583;53.132;6.574;2022-12-07T07:59:42;2.50;99.90
57753;DHT22;43583;53.132;6.574;2022-12-07T08:02:14;2.40;99.90
57753;DHT22;43583;53.132;6.574;2022-12-07T08:04:39;2.30;99.90
57753;DHT22;43583;53.132;6.574;2022-12-07T08:07:05;2.40;99.90
57753;DHT22;43583;53.132;6.574;2022-12-07T08:09:30;2.20;99.90
57753;DHT22;43583;53.132;6.574;2022-12-07T08:11:57;2.20;99.90
57753;DHT22;43583;53.132;6.574;2022-12-07T08:14:22;2.20;99.90
57753;DHT22;43583;53.132;6.574;2022-12-07T08:16:48;2.30;99.90
57753;DHT22;43583;53.132;6.574;2022-12-07T08:19:13;2.40;99.90
57753;DHT22;43583;53.132;6.574;2022-12-07T08:21:39;2.50;99.90
57753;DHT22;43583;53.132;6.574;2022-12-07T08:24:04;2.60;99.90
57753;DHT22;43583;53.132;6.574;2022-12-07T08:26:30;2.60;99.90
57753;DHT22;43583;53.132;6.574;2022-12-07T08:28:56;2.70;99.90
57753;DHT22;43583;53.132;6.574;2022-12-07T08:31:21;2.70;99.90
57753;DHT22;43583;53.132;6.574;2022-12-07T08:33:48;2.70;99.90
57753;DHT22;43583;53.132;6.574;2022-12-07T08:36:14;2.70;99.90
57753;DHT22;43583;53.132;6.574;2022-12-07T08:38:40;2.70;99.90
57753;DHT22;43583;53.132;6.574;2022-12-07T08:41:07;2.70;99.90
57753;DHT22;43583;53.132;6.574;2022-12-07T08:43:33;2.70;99.90
57753;DHT22;43583;53.132;6.574;2022-12-07T08:46:19;2.70;99.90
57753;DHT22;43583;53.132;6.574;2022-12-07T08:51:32;2.80;99.90
57753;DHT22;43583;53.132;6.574;2022-12-07T08:53:58;2.80;99.90
57753;DHT22;43583;53.132;6.574;2022-12-07T08:56:24;2.90;99.90
57753;DHT22;43583;53.132;6.574;2022-12-07T08:58:50;3.10;99.90
57753;DHT22;43583;53.132;6.574;2022-12-07T09:01:16;3.20;99.90
57753;DHT22;43583;53.132;6.574;2022-12-07T09:03:42;3.30;99.90
57753;DHT22;43583;53.132;6.574;2022-12-07T09:06:08;3.40;99.90
57753;DHT22;43583;53.132;6.574;2022-12-07T09:08:37;3.50;99.90
57753;DHT22;43583;53.132;6.574;2022-12-07T09:11:04;3.50;99.90
57753;DHT22;43583;53.132;6.574;2022-12-07T09:13:30;3.80;99.90
57753;DHT22;43583;53.132;6.574;2022-12-07T09:15:56;4.10;99.90
57753;DHT22;43583;53.132;6.574;2022-12-07T09:18:21;4.50;99.90
57753;DHT22;43583;53.132;6.574;2022-12-07T09:20:47;4.90;99.90
57753;DHT22;43583;53.132;6.574;2022-12-07T09:23:12;5.10;99.90
57753;DHT22;43583;53.132;6.574;2022-12-07T09:25:38;5.20;99.90
57753;DHT22;43583;53.132;6.574;2022-12-07T09:28:03;5.40;99.90
57753;DHT22;43583;53.132;6.574;2022-12-07T09:30:29;5.70;99.90
57753;DHT22;43583;53.132;6.574;2022-12-07T09:32:56;5.80;99.90
57753;DHT22;43583;53.132;6.574;2022-12-07T09:35:22;5.90;99.90
57753;DHT22;43583;53.132;6.574;2022-12-07T09:37:48;5.80;99.90
57753;DHT22;43583;53.132;6.574;2022-12-07T09:40:15;5.70;99.90
57753;DHT22;43583;53.132;6.574;2022-12-07T09:42:43;5.60;99.90
57753;DHT22;43583;53.132;6.574;2022-12-07T09:45:25;5.50;99.90
57753;DHT22;43583;53.132;6.574;2022-12-07T09:47:52;5.40;99.90
57753;DHT22;43583;53.132;6.574;2022-12-07T09:50:23;5.30;99.90
57753;DHT22;43583;53.132;6.574;2022-12-07T09:52:50;5.20;99.90
57753;DHT22;43583;53.132;6.574;2022-12-07T09:55:23;5.10;99.90
57753;DHT22;43583;53.132;6.574;2022-12-07T09:57:50;5.10;99.90
57753;DHT22;43583;53.132;6.574;2022-12-07T10:00:19;5.00;99.90
57753;DHT22;43583;53.132;6.574;2022-12-07T10:02:53;5.10;99.90
57753;DHT22;43583;53.132;6.574;2022-12-07T10:05:30;5.10;99.90
57753;DHT22;43583;53.132;6.574;2022-12-07T10:07:57;5.20;99.90
57753;DHT22;43583;53.132;6.574;2022-12-07T10:10:27;5.20;99.90
57753;DHT22;43583;53.132;6.574;2022-12-07T10:12:55;5.20;99.90
57753;DHT22;43583;53.132;6.574;2022-12-07T10:15:21;5.20;99.90
57753;DHT22;43583;53.132;6.574;2022-12-07T10:17:49;5.20;99.90
57753;DHT22;43583;53.132;6.574;2022-12-07T10:20:19;5.30;99.90
57753;DHT22;43583;53.132;6.574;2022-12-07T10:22:56;5.30;99.90
57753;DHT22;43583;53.132;6.574;2022-12-07T10:25:24;5.40;99.90
57753;DHT22;43583;53.132;6.574;2022-12-07T10:27:59;5.40;99.90
57753;DHT22;43583;53.132;6.574;2022-12-07T10:30:25;5.50;99.90
57753;DHT22;43583;53.132;6.574;2022-12-07T10:32:51;5.60;99.90
57753;DHT22;43583;53.132;6.574;2022-12-07T10:35:23;5.60;99.90
57753;DHT22;43583;53.132;6.574;2022-12-07T10:37:50;5.70;99.90
57753;DHT22;43583;53.132;6.574;2022-12-07T10:40:31;5.70;99.90
57753;DHT22;43583;53.132;6.574;2022-12-07T10:43:07;5.80;99.90
57753;DHT22;43583;53.132;6.574;2022-12-07T10:46:16;5.90;99.90
57753;DHT22;43583;53.132;6.574;2022-12-07T10:54:46;6.40;99.90
57753;DHT22;43583;53.132;6.574;2022-12-07T11:00:15;6.70;99.90
57753;DHT22;43583;53.132;6.574;2022-12-07T11:05:27;6.90;99.90
57753;DHT22;43583;53.132;6.574;2022-12-07T11:11:01;6.60;99.90
57753;DHT22;43583;53.132;6.574;2022-12-07T11:14:00;6.40;99.90
57753;DHT22;43583;53.132;6.574;2022-12-07T11:19:44;5.70;99.90
57753;DHT22;43583;53.132;6.574;2022-12-07T11:22:23;5.30;99.90
57753;DHT22;43583;53.132;6.574;2022-12-07T11:27:40;4.90;99.90
57753;DHT22;43583;53.132;6.574;2022-12-07T11:38:17;4.90;99.90
57753;DHT22;43583;53.132;6.574;2022-12-07T11:40:50;4.90;99.90
57753;DHT22;43583;53.132;6.574;2022-12-07T11:43:26;5.00;99.90
57753;DHT22;43583;53.132;6.574;2022-12-07T11:46:00;5.10;99.90
57753;DHT22;43583;53.132;6.574;2022-12-07T11:48:50;5.30;99.90
57753;DHT22;43583;53.132;6.574;2022-12-07T11:51:20;5.50;99.90
57753;DHT22;43583;53.132;6.574;2022-12-07T11:53:54;5.50;99.90
57753;DHT22;43583;53.132;6.574;2022-12-07T11:56:22;5.70;99.90
57753;DHT22;43583;53.132;6.574;2022-12-07T11:59:04;5.80;99.90
57753;DHT22;43583;53.132;6.574;2022-12-07T12:06:43;6.10;99.90
57753;DHT22;43583;53.132;6.574;2022-12-07T12:09:12;6.20;99.90
57753;DHT22;43583;53.132;6.574;2022-12-07T12:12:13;6.20;99.90
57753;DHT22;43583;53.132;6.574;2022-12-07T12:15:09;6.30;99.90
57753;DHT22;43583;53.132;6.574;2022-12-07T12:18:07;6.30;99.90
57753;DHT22;43583;53.132;6.574;2022-12-07T12:20:43;6.30;99.90
57753;DHT22;43583;53.132;6.574;2022-12-07T12:23:19;6.30;99.90
57753;DHT22;43583;53.132;6.574;2022-12-07T12:25:57;6.20;99.90
57753;DHT22;43583;53.132;6.574;2022-12-07T12:28:31;6.10;99.90
57753;DHT22;43583;53.132;6.574;2022-12-07T12:31:09;6.00;99.90
57753;DHT22;43583;53.132;6.574;2022-12-07T12:33:37;5.90;99.90
57753;DHT22;43583;53.132;6.574;2022-12-07T12:46:50;5.80;99.90
57753;DHT22;43583;53.132;6.574;2022-12-07T12:51:49;5.80;99.90
57753;DHT22;43583;53.132;6.574;2022-12-07T12:59:41;5.90;99.90
57753;DHT22;43583;53.132;6.574;2022-12-07T13:02:26;5.90;99.90
57753;DHT22;43583;53.132;6.574;2022-12-07T13:15:48;5.70;99.90
57753;DHT22;43583;53.132;6.574;2022-12-07T13:20:59;5.50;99.90
57753;DHT22;43583;53.132;6.574;2022-12-07T13:31:38;5.00;99.90
57753;DHT22;43583;53.132;6.574;2022-12-07T13:36:49;4.80;99.90
57753;DHT22;43583;53.132;6.574;2022-12-07T13:39:19;4.70;99.90
57753;DHT22;43583;53.132;6.574;2022-12-07T13:41:50;4.70;99.90
57753;DHT22;43583;53.132;6.574;2022-12-07T13:44:17;4.60;99.90
57753;DHT22;43583;53.132;6.574;2022-12-07T13:47:05;4.70;99.90
57753;DHT22;43583;53.132;6.574;2022-12-07T13:49:37;4.70;99.90
57753;DHT22;43583;53.132;6.574;2022-12-07T13:52:20;4.70;99.90
57753;DHT22;43583;53.132;6.574;2022-12-07T13:54:48;4.70;99.90
57753;DHT22;43583;53.132;6.574;2022-12-07T13:57:15;4.70;99.90
57753;DHT22;43583;53.132;6.574;2022-12-07T13:59:41;4.70;99.90
57753;DHT22;43583;53.132;6.574;2022-12-07T14:02:28;4.70;99.90
57753;DHT22;43583;53.132;6.574;2022-12-07T14:05:14;4.70;99.90
57753;DHT22;43583;53.132;6.574;2022-12-07T14:10:32;4.60;99.90
57753;DHT22;43583;53.132;6.574;2022-12-07T14:12:59;4.50;99.90
57753;DHT22;43583;53.132;6.574;2022-12-07T14:15:29;4.40;99.90
57753;DHT22;43583;53.132;6.574;2022-12-07T14:17:56;4.30;99.90
57753;DHT22;43583;53.132;6.574;2022-12-07T14:20:35;4.20;99.90
57753;DHT22;43583;53.132;6.574;2022-12-07T14:23:02;4.10;99.90
57753;DHT22;43583;53.132;6.574;2022-12-07T14:25:49;4.00;99.90
57753;DHT22;43583;53.132;6.574;2022-12-07T14:28:32;3.90;99.90
57753;DHT22;43583;53.132;6.574;2022-12-07T14:31:00;3.80;99.90
57753;DHT22;43583;53.132;6.574;2022-12-07T14:33:26;3.80;99.90
57753;DHT22;43583;53.132;6.574;2022-12-07T14:35:54;3.80;99.90
57753;DHT22;43583;53.132;6.574;2022-12-07T14:38:21;3.70;99.90
57753;DHT22;43583;53.132;6.574;2022-12-07T14:40:47;3.80;99.90
57753;DHT22;43583;53.132;6.574;2022-12-07T14:43:15;3.80;99.90
57753;DHT22;43583;53.132;6.574;2022-12-07T14:45:41;3.80;99.90
57753;DHT22;43583;53.132;6.574;2022-12-07T14:48:12;3.80;99.90
57753;DHT22;43583;53.132;6.574;2022-12-07T14:50:41;3.90;99.90
57753;DHT22;43583;53.132;6.574;2022-12-07T14:53:14;3.90;99.90
57753;DHT22;43583;53.132;6.574;2022-12-07T14:55:40;4.00;99.90
57753;DHT22;43583;53.132;6.574;2022-12-07T14:58:06;4.00;99.90
57753;DHT22;43583;53.132;6.574;2022-12-07T15:00:33;4.00;99.90
57753;DHT22;43583;53.132;6.574;2022-12-07T15:02:59;4.00;99.90
57753;DHT22;43583;53.132;6.574;2022-12-07T15:05:25;4.10;99.90
57753;DHT22;43583;53.132;6.574;2022-12-07T15:07:50;4.00;99.90
57753;DHT22;43583;53.132;6.574;2022-12-07T15:10:24;4.00;99.90
57753;DHT22;43583;53.132;6.574;2022-12-07T15:12:55;4.00;99.90
57753;DHT22;43583;53.132;6.574;2022-12-07T15:15:20;3.90;99.90
57753;DHT22;43583;53.132;6.574;2022-12-07T15:17:46;3.90;99.90
57753;DHT22;43583;53.132;6.574;2022-12-07T15:20:13;3.80;99.90
57753;DHT22;43583;53.132;6.574;2022-12-07T15:22:39;3.80;99.90
57753;DHT22;43583;53.132;6.574;2022-12-07T15:25:05;3.70;99.90
57753;DHT22;43583;53.132;6.574;2022-12-07T15:27:31;3.60;99.90
57753;DHT22;43583;53.132;6.574;2022-12-07T15:29:57;3.50;99.90
57753;DHT22;43583;53.132;6.574;2022-12-07T15:32:22;3.50;99.90
57753;DHT22;43583;53.132;6.574;2022-12-07T15:34:48;3.40;99.90
57753;DHT22;43583;53.132;6.574;2022-12-07T15:37:15;3.30;99.90
57753;DHT22;43583;53.132;6.574;2022-12-07T15:39:41;3.20;99.90
57753;DHT22;43583;53.132;6.574;2022-12-07T15:42:06;3.20;99.90
57753;DHT22;43583;53.132;6.574;2022-12-07T15:44:32;3.10;99.90
57753;DHT22;43583;53.132;6.574;2022-12-07T15:47:16;3.20;99.90
57753;DHT22;43583;53.132;6.574;2022-12-07T15:49:42;3.10;99.90
57753;DHT22;43583;53.132;6.574;2022-12-07T15:52:07;3.10;99.90
57753;DHT22;43583;53.132;6.574;2022-12-07T15:54:33;3.10;99.90
57753;DHT22;43583;53.132;6.574;2022-12-07T15:56:58;3.00;99.90
57753;DHT22;43583;53.132;6.574;2022-12-07T15:59:26;3.00;99.90
57753;DHT22;43583;53.132;6.574;2022-12-07T16:01:52;3.00;99.90
57753;DHT22;43583;53.132;6.574;2022-12-07T16:04:17;3.00;99.90
57753;DHT22;43583;53.132;6.574;2022-12-07T16:06:44;3.00;99.90
57753;DHT22;43583;53.132;6.574;2022-12-07T16:09:09;3.00;99.90
57753;DHT22;43583;53.132;6.574;2022-12-07T16:11:35;2.90;99.90
57753;DHT22;43583;53.132;6.574;2022-12-07T16:14:00;2.90;99.90
57753;DHT22;43583;53.132;6.574;2022-12-07T16:16:26;2.90;99.90
57753;DHT22;43583;53.132;6.574;2022-12-07T16:18:52;2.90;99.90
57753;DHT22;43583;53.132;6.574;2022-12-07T16:21:18;2.90;99.90
57753;DHT22;43583;53.132;6.574;2022-12-07T16:23:44;2.90;99.90
57753;DHT22;43583;53.132;6.574;2022-12-07T16:26:15;2.90;99.90
57753;DHT22;43583;53.132;6.574;2022-12-07T16:28:42;3.00;99.90
57753;DHT22;43583;53.132;6.574;2022-12-07T16:31:11;3.00;99.90
57753;DHT22;43583;53.132;6.574;2022-12-07T16:33:39;3.00;99.90
57753;DHT22;43583;53.132;6.574;2022-12-07T16:36:06;3.10;99.90
57753;DHT22;43583;53.132;6.574;2022-12-07T16:38:32;3.10;99.90
57753;DHT22;43583;53.132;6.574;2022-12-07T16:40:58;3.10;99.90
57753;DHT22;43583;53.132;6.574;2022-12-07T16:43:24;3.20;99.90
57753;DHT22;43583;53.132;6.574;2022-12-07T16:45:50;3.30;99.90
57753;DHT22;43583;53.132;6.574;2022-12-07T16:48:16;3.30;99.90
57753;DHT22;43583;53.132;6.574;2022-12-07T16:50:42;3.30;99.90
57753;DHT22;43583;53.132;6.574;2022-12-07T16:53:12;3.30;99.90
57753;DHT22;43583;53.132;6.574;2022-12-07T16:55:39;3.30;99.90
57753;DHT22;43583;53.132;6.574;2022-12-07T16:58:06;3.30;99.90
57753;DHT22;43583;53.132;6.574;2022-12-07T17:00:31;3.30;99.90
57753;DHT22;43583;53.132;6.574;2022-12-07T17:02:57;3.30;99.90
57753;DHT22;43583;53.132;6.574;2022-12-07T17:05:23;3.30;99.90
57753;DHT22;43583;53.132;6.574;2022-12-07T17:07:50;3.30;99.90
57753;DHT22;43583;53.132;6.574;2022-12-07T17:10:15;3.30;99.90
57753;DHT22;43583;53.132;6.574;2022-12-07T17:12:41;3.40;99.90
57753;DHT22;43583;53.132;6.574;2022-12-07T17:15:08;3.30;99.90
57753;DHT22;43583;53.132;6.574;2022-12-07T17:17:53;3.40;99.90
57753;DHT22;43583;53.132;6.574;2022-12-07T17:20:19;3.40;99.90
57753;DHT22;43583;53.132;6.574;2022-12-07T17:22:46;3.40;99.90
57753;DHT22;43583;53.132;6.574;2022-12-07T17:25:11;3.30;99.90
57753;DHT22;43583;53.132;6.574;2022-12-07T17:27:37;3.40;99.90
57753;DHT22;43583;53.132;6.574;2022-12-07T17:30:05;3.40;99.90
57753;DHT22;43583;53.132;6.574;2022-12-07T17:32:31;3.30;99.90
57753;DHT22;43583;53.132;6.574;2022-12-07T17:34:56;3.30;99.90
57753;DHT22;43583;53.132;6.574;2022-12-07T17:37:22;3.30;99.90
57753;DHT22;43583;53.132;6.574;2022-12-07T17:39:47;3.30;99.90
57753;DHT22;43583;53.132;6.574;2022-12-07T17:42:13;3.30;99.90